sensor_id;sensor_type;location;lat;lon;timestamp;P1;durP1;ratioP1;P2;durP2;ratioP2
53903;SDS011;39812;52.430;16.936;2022-09-17T00:00:12;5.18;;;2.72;;
53903;SDS011;39812;52.430;16.936;2022-09-17T00:02:37;4.20;;;1.80;;
53903;SDS011;39812;52.430;16.936;2022-09-17T00:05:03;4.15;;;2.17;;
53903;SDS011;39812;52.430;16.936;2022-09-17T00:07:29;6.88;;;2.05;;
53903;SDS011;39812;52.430;16.936;2022-09-17T00:09:55;5.45;;;2.30;;
53903;SDS011;39812;52.430;16.936;2022-09-17T00:12:20;2.53;;;1.75;;
53903;SDS011;39812;52.430;16.936;2022-09-17T00:14:46;3.85;;;2.13;;
53903;SDS011;39812;52.430;16.936;2022-09-17T00:17:11;3.88;;;1.58;;
53903;SDS011;39812;52.430;16.936;2022-09-17T00:19:37;5.00;;;1.90;;
53903;SDS011;39812;52.430;16.936;2022-09-17T00:22:03;3.22;;;1.48;;
53903;SDS011;39812;52.430;16.936;2022-09-17T00:24:28;4.40;;;1.70;;
53903;SDS011;39812;52.430;16.936;2022-09-17T00:26:55;3.63;;;1.80;;
53903;SDS011;39812;52.430;16.936;2022-09-17T00:29:20;2.25;;;1.60;;
53903;SDS011;39812;52.430;16.936;2022-09-17T00:31:45;3.95;;;1.63;;
53903;SDS011;39812;52.430;16.936;2022-09-17T00:34:11;4.20;;;1.83;;
53903;SDS011;39812;52.430;16.936;2022-09-17T00:36:37;2.83;;;1.70;;
53903;SDS011;39812;52.430;16.936;2022-09-17T00:39:03;3.97;;;1.60;;
53903;SDS011;39812;52.430;16.936;2022-09-17T00:41:31;3.50;;;1.70;;
53903;SDS011;39812;52.430;16.936;2022-09-17T00:43:58;3.47;;;1.90;;
53903;SDS011;39812;52.430;16.936;2022-09-17T00:46:33;2.60;;;1.55;;
53903;SDS011;39812;52.430;16.936;2022-09-17T00:49:08;3.03;;;1.65;;
53903;SDS011;39812;52.430;16.936;2022-09-17T00:51:39;3.85;;;1.70;;
53903;SDS011;39812;52.430;16.936;2022-09-17T00:54:10;4.38;;;1.75;;
53903;SDS011;39812;52.430;16.936;2022-09-17T00:56:37;7.72;;;1.73;;
53903;SDS011;39812;52.430;16.936;2022-09-17T00:59:05;5.28;;;1.77;;
53903;SDS011;39812;52.430;16.936;2022-09-17T01:01:31;3.03;;;1.60;;
53903;SDS011;39812;52.430;16.936;2022-09-17T01:03:56;4.63;;;1.60;;
53903;SDS011;39812;52.430;16.936;2022-09-17T01:09:33;3.42;;;1.50;;
53903;SDS011;39812;52.430;16.936;2022-09-17T01:18:12;3.30;;;1.50;;
53903;SDS011;39812;52.430;16.936;2022-09-17T01:24:26;10.60;;;1.90;;
53903;SDS011;39812;52.430;16.936;2022-09-17T01:30:13;3.28;;;1.73;;
53903;SDS011;39812;52.430;16.936;2022-09-17T01:32:57;5.93;;;1.48;;
53903;SDS011;39812;52.430;16.936;2022-09-17T01:35:39;3.38;;;1.30;;
53903;SDS011;39812;52.430;16.936;2022-09-17T01:38:24;7.10;;;2.35;;
53903;SDS011;39812;52.430;16.936;2022-09-17T01:40:55;4.88;;;1.23;;
53903;SDS011;39812;52.430;16.936;2022-09-17T01:43:32;3.40;;;1.40;;
53903;SDS011;39812;52.430;16.936;2022-09-17T01:46:12;1.90;;;1.42;;
53903;SDS011;39812;52.430;16.936;2022-09-17T01:48:44;3.63;;;1.98;;
53903;SDS011;39812;52.430;16.936;2022-09-17T01:51:14;3.22;;;1.88;;
53903;SDS011;39812;52.430;16.936;2022-09-17T01:53:48;4.95;;;2.55;;
53903;SDS011;39812;52.430;16.936;2022-09-17T01:56:21;5.35;;;2.00;;
53903;SDS011;39812;52.430;16.936;2022-09-17T01:58:59;3.78;;;1.83;;
53903;SDS011;39812;52.430;16.936;2022-09-17T02:01:30;7.90;;;2.45;;
53903;SDS011;39812;52.430;16.936;2022-09-17T02:04:02;3.53;;;2.10;;
53903;SDS011;39812;52.430;16.936;2022-09-17T02:06:35;4.20;;;2.25;;
53903;SDS011;39812;52.430;16.936;2022-09-17T02:09:05;4.93;;;1.95;;
53903;SDS011;39812;52.430;16.936;2022-09-17T02:11:36;4.85;;;2.42;;
53903;SDS011;39812;52.430;16.936;2022-09-17T02:14:09;3.40;;;2.70;;
53903;SDS011;39812;52.430;16.936;2022-09-17T02:16:40;7.00;;;2.65;;
53903;SDS011;39812;52.430;16.936;2022-09-17T02:27:34;3.75;;;2.58;;
53903;SDS011;39812;52.430;16.936;2022-09-17T02:30:08;3.35;;;2.70;;
53903;SDS011;39812;52.430;16.936;2022-09-17T02:32:34;4.68;;;2.83;;
53903;SDS011;39812;52.430;16.936;2022-09-17T02:35:00;4.35;;;3.20;;
53903;SDS011;39812;52.430;16.936;2022-09-17T02:37:25;4.78;;;3.03;;
53903;SDS011;39812;52.430;16.936;2022-09-17T02:39:51;4.55;;;3.28;;
53903;SDS011;39812;52.430;16.936;2022-09-17T02:42:21;6.03;;;3.88;;
53903;SDS011;39812;52.430;16.936;2022-09-17T02:50:57;4.57;;;3.60;;
53903;SDS011;39812;52.430;16.936;2022-09-17T02:53:50;4.85;;;3.15;;
53903;SDS011;39812;52.430;16.936;2022-09-17T02:56:41;5.55;;;3.35;;
53903;SDS011;39812;52.430;16.936;2022-09-17T02:59:20;4.25;;;3.28;;
53903;SDS011;39812;52.430;16.936;2022-09-17T03:04:46;4.10;;;3.65;;
53903;SDS011;39812;52.430;16.936;2022-09-17T03:07:13;4.43;;;3.08;;
53903;SDS011;39812;52.430;16.936;2022-09-17T03:09:41;3.90;;;3.10;;
53903;SDS011;39812;52.430;16.936;2022-09-17T03:12:07;4.97;;;3.50;;
53903;SDS011;39812;52.430;16.936;2022-09-17T03:14:33;4.75;;;3.42;;
53903;SDS011;39812;52.430;16.936;2022-09-17T03:16:59;4.70;;;2.95;;
53903;SDS011;39812;52.430;16.936;2022-09-17T03:19:25;6.00;;;3.10;;
53903;SDS011;39812;52.430;16.936;2022-09-17T03:21:51;6.18;;;3.60;;
53903;SDS011;39812;52.430;16.936;2022-09-17T03:24:17;4.50;;;3.28;;
53903;SDS011;39812;52.430;16.936;2022-09-17T03:26:43;4.18;;;3.22;;
53903;SDS011;39812;52.430;16.936;2022-09-17T03:29:08;5.40;;;3.70;;
53903;SDS011;39812;52.430;16.936;2022-09-17T03:31:34;4.90;;;3.13;;
53903;SDS011;39812;52.430;16.936;2022-09-17T03:33:59;4.80;;;3.08;;
53903;SDS011;39812;52.430;16.936;2022-09-17T03:36:25;5.05;;;2.90;;
53903;SDS011;39812;52.430;16.936;2022-09-17T03:38:57;6.75;;;3.05;;
53903;SDS011;39812;52.430;16.936;2022-09-17T03:41:23;4.05;;;3.25;;
53903;SDS011;39812;52.430;16.936;2022-09-17T03:43:49;5.63;;;3.00;;
53903;SDS011;39812;52.430;16.936;2022-09-17T03:46:14;4.07;;;3.10;;
53903;SDS011;39812;52.430;16.936;2022-09-17T03:48:40;6.07;;;3.55;;
53903;SDS011;39812;52.430;16.936;2022-09-17T03:51:06;5.72;;;3.72;;
53903;SDS011;39812;52.430;16.936;2022-09-17T03:53:31;4.07;;;3.50;;
53903;SDS011;39812;52.430;16.936;2022-09-17T03:56:01;6.50;;;4.00;;
53903;SDS011;39812;52.430;16.936;2022-09-17T03:58:28;4.43;;;3.47;;
53903;SDS011;39812;52.430;16.936;2022-09-17T04:00:55;6.95;;;4.28;;
53903;SDS011;39812;52.430;16.936;2022-09-17T04:03:22;5.70;;;4.55;;
53903;SDS011;39812;52.430;16.936;2022-09-17T04:05:52;4.75;;;4.10;;
53903;SDS011;39812;52.430;16.936;2022-09-17T04:08:18;5.07;;;3.70;;
53903;SDS011;39812;52.430;16.936;2022-09-17T04:10:43;4.05;;;2.97;;
53903;SDS011;39812;52.430;16.936;2022-09-17T04:13:09;5.07;;;3.33;;
53903;SDS011;39812;52.430;16.936;2022-09-17T04:15:36;4.50;;;3.20;;
53903;SDS011;39812;52.430;16.936;2022-09-17T04:18:01;5.00;;;3.30;;
53903;SDS011;39812;52.430;16.936;2022-09-17T04:20:27;4.53;;;3.28;;
53903;SDS011;39812;52.430;16.936;2022-09-17T04:22:53;4.00;;;2.72;;
53903;SDS011;39812;52.430;16.936;2022-09-17T04:25:19;5.00;;;2.85;;
53903;SDS011;39812;52.430;16.936;2022-09-17T04:27:44;3.22;;;2.40;;
53903;SDS011;39812;52.430;16.936;2022-09-17T04:30:11;3.58;;;2.80;;
53903;SDS011;39812;52.430;16.936;2022-09-17T04:32:37;3.35;;;2.47;;
53903;SDS011;39812;52.430;16.936;2022-09-17T04:35:03;4.00;;;2.38;;
53903;SDS011;39812;52.430;16.936;2022-09-17T04:37:29;5.18;;;2.25;;
53903;SDS011;39812;52.430;16.936;2022-09-17T04:39:54;4.05;;;2.58;;
53903;SDS011;39812;52.430;16.936;2022-09-17T04:42:20;2.80;;;2.17;;
53903;SDS011;39812;52.430;16.936;2022-09-17T04:44:46;2.55;;;2.17;;
53903;SDS011;39812;52.430;16.936;2022-09-17T04:47:11;3.20;;;2.38;;
53903;SDS011;39812;52.430;16.936;2022-09-17T04:49:36;3.88;;;2.53;;
53903;SDS011;39812;52.430;16.936;2022-09-17T04:52:02;4.65;;;3.38;;
53903;SDS011;39812;52.430;16.936;2022-09-17T04:54:27;5.45;;;2.40;;
53903;SDS011;39812;52.430;16.936;2022-09-17T04:56:53;3.30;;;2.75;;
53903;SDS011;39812;52.430;16.936;2022-09-17T04:59:18;3.45;;;3.03;;
53903;SDS011;39812;52.430;16.936;2022-09-17T05:01:44;3.17;;;2.40;;
53903;SDS011;39812;52.430;16.936;2022-09-17T05:04:09;3.40;;;2.85;;
53903;SDS011;39812;52.430;16.936;2022-09-17T05:06:35;2.75;;;2.40;;
53903;SDS011;39812;52.430;16.936;2022-09-17T05:09:00;3.72;;;2.20;;
53903;SDS011;39812;52.430;16.936;2022-09-17T05:11:26;3.42;;;2.70;;
53903;SDS011;39812;52.430;16.936;2022-09-17T05:13:52;3.53;;;2.10;;
53903;SDS011;39812;52.430;16.936;2022-09-17T05:16:18;2.75;;;2.10;;
53903;SDS011;39812;52.430;16.936;2022-09-17T05:18:44;3.33;;;2.28;;
53903;SDS011;39812;52.430;16.936;2022-09-17T05:21:09;2.88;;;2.28;;
53903;SDS011;39812;52.430;16.936;2022-09-17T05:23:35;4.20;;;2.50;;
53903;SDS011;39812;52.430;16.936;2022-09-17T05:26:00;3.30;;;2.50;;
53903;SDS011;39812;52.430;16.936;2022-09-17T05:28:26;3.25;;;2.55;;
53903;SDS011;39812;52.430;16.936;2022-09-17T05:30:52;3.45;;;2.33;;
53903;SDS011;39812;52.430;16.936;2022-09-17T05:33:18;3.20;;;2.30;;
53903;SDS011;39812;52.430;16.936;2022-09-17T05:35:44;4.20;;;2.63;;
53903;SDS011;39812;52.430;16.936;2022-09-17T05:38:10;3.85;;;2.70;;
53903;SDS011;39812;52.430;16.936;2022-09-17T05:40:35;4.60;;;3.33;;
53903;SDS011;39812;52.430;16.936;2022-09-17T05:43:05;3.55;;;2.53;;
53903;SDS011;39812;52.430;16.936;2022-09-17T05:45:31;6.13;;;2.72;;
53903;SDS011;39812;52.430;16.936;2022-09-17T05:47:58;4.32;;;2.45;;
53903;SDS011;39812;52.430;16.936;2022-09-17T05:50:25;5.47;;;3.17;;
53903;SDS011;39812;52.430;16.936;2022-09-17T05:52:52;4.78;;;3.40;;
53903;SDS011;39812;52.430;16.936;2022-09-17T05:55:18;5.10;;;2.72;;
53903;SDS011;39812;52.430;16.936;2022-09-17T05:57:46;3.70;;;2.67;;
53903;SDS011;39812;52.430;16.936;2022-09-17T06:00:15;3.22;;;2.40;;
53903;SDS011;39812;52.430;16.936;2022-09-17T06:02:41;3.22;;;2.42;;
53903;SDS011;39812;52.430;16.936;2022-09-17T06:05:07;3.15;;;2.22;;
53903;SDS011;39812;52.430;16.936;2022-09-17T06:07:36;3.17;;;2.60;;
53903;SDS011;39812;52.430;16.936;2022-09-17T06:10:03;3.65;;;2.15;;
53903;SDS011;39812;52.430;16.936;2022-09-17T06:12:29;3.78;;;2.33;;
53903;SDS011;39812;52.430;16.936;2022-09-17T06:14:55;4.60;;;2.45;;
53903;SDS011;39812;52.430;16.936;2022-09-17T06:17:20;4.68;;;2.95;;
53903;SDS011;39812;52.430;16.936;2022-09-17T06:19:46;4.50;;;2.78;;
53903;SDS011;39812;52.430;16.936;2022-09-17T06:22:11;2.25;;;1.88;;
53903;SDS011;39812;52.430;16.936;2022-09-17T06:24:36;3.95;;;2.88;;
53903;SDS011;39812;52.430;16.936;2022-09-17T06:27:02;6.07;;;3.22;;
53903;SDS011;39812;52.430;16.936;2022-09-17T06:29:27;5.80;;;3.00;;
53903;SDS011;39812;52.430;16.936;2022-09-17T06:31:53;4.70;;;3.28;;
53903;SDS011;39812;52.430;16.936;2022-09-17T06:34:19;4.45;;;3.13;;
53903;SDS011;39812;52.430;16.936;2022-09-17T06:36:44;7.47;;;3.35;;
53903;SDS011;39812;52.430;16.936;2022-09-17T06:39:10;5.53;;;2.88;;
53903;SDS011;39812;52.430;16.936;2022-09-17T06:41:36;4.72;;;3.08;;
53903;SDS011;39812;52.430;16.936;2022-09-17T06:44:02;4.28;;;3.33;;
53903;SDS011;39812;52.430;16.936;2022-09-17T06:46:28;7.28;;;3.72;;
53903;SDS011;39812;52.430;16.936;2022-09-17T06:48:53;5.05;;;3.30;;
53903;SDS011;39812;52.430;16.936;2022-09-17T06:51:19;7.18;;;3.25;;
53903;SDS011;39812;52.430;16.936;2022-09-17T06:53:46;7.05;;;4.20;;
53903;SDS011;39812;52.430;16.936;2022-09-17T06:56:12;5.05;;;3.42;;
53903;SDS011;39812;52.430;16.936;2022-09-17T06:58:38;5.47;;;3.95;;
53903;SDS011;39812;52.430;16.936;2022-09-17T07:01:07;6.22;;;3.55;;
53903;SDS011;39812;52.430;16.936;2022-09-17T07:03:36;4.63;;;3.10;;
53903;SDS011;39812;52.430;16.936;2022-09-17T07:06:02;6.97;;;4.00;;
53903;SDS011;39812;52.430;16.936;2022-09-17T07:08:31;6.43;;;4.45;;
53903;SDS011;39812;52.430;16.936;2022-09-17T07:10:58;7.88;;;4.38;;
53903;SDS011;39812;52.430;16.936;2022-09-17T07:13:24;9.25;;;4.22;;
53903;SDS011;39812;52.430;16.936;2022-09-17T07:18:19;10.95;;;5.15;;
53903;SDS011;39812;52.430;16.936;2022-09-17T07:20:50;8.60;;;4.78;;
53903;SDS011;39812;52.430;16.936;2022-09-17T07:23:17;7.40;;;4.78;;
53903;SDS011;39812;52.430;16.936;2022-09-17T07:25:43;7.88;;;5.05;;
53903;SDS011;39812;52.430;16.936;2022-09-17T07:28:08;8.18;;;4.55;;
53903;SDS011;39812;52.430;16.936;2022-09-17T07:30:34;9.02;;;5.10;;
53903;SDS011;39812;52.430;16.936;2022-09-17T07:33:02;7.95;;;5.00;;
53903;SDS011;39812;52.430;16.936;2022-09-17T07:35:27;6.68;;;4.55;;
53903;SDS011;39812;52.430;16.936;2022-09-17T07:37:53;9.73;;;4.63;;
53903;SDS011;39812;52.430;16.936;2022-09-17T07:40:18;10.90;;;4.93;;
53903;SDS011;39812;52.430;16.936;2022-09-17T07:42:44;10.82;;;4.82;;
53903;SDS011;39812;52.430;16.936;2022-09-17T07:45:09;6.88;;;4.20;;
53903;SDS011;39812;52.430;16.936;2022-09-17T07:47:38;9.93;;;4.72;;
53903;SDS011;39812;52.430;16.936;2022-09-17T07:50:05;7.93;;;4.00;;
53903;SDS011;39812;52.430;16.936;2022-09-17T07:52:31;8.10;;;4.35;;
53903;SDS011;39812;52.430;16.936;2022-09-17T07:54:57;7.80;;;4.05;;
53903;SDS011;39812;52.430;16.936;2022-09-17T07:57:22;9.75;;;4.15;;
53903;SDS011;39812;52.430;16.936;2022-09-17T07:59:48;7.00;;;3.65;;
53903;SDS011;39812;52.430;16.936;2022-09-17T08:02:13;11.02;;;4.15;;
53903;SDS011;39812;52.430;16.936;2022-09-17T08:04:40;7.43;;;3.78;;
53903;SDS011;39812;52.430;16.936;2022-09-17T08:07:09;10.50;;;4.38;;
53903;SDS011;39812;52.430;16.936;2022-09-17T08:09:35;7.63;;;3.75;;
53903;SDS011;39812;52.430;16.936;2022-09-17T08:12:01;7.50;;;3.70;;
53903;SDS011;39812;52.430;16.936;2022-09-17T08:14:26;7.28;;;3.65;;
53903;SDS011;39812;52.430;16.936;2022-09-17T08:16:52;8.25;;;4.30;;
53903;SDS011;39812;52.430;16.936;2022-09-17T08:19:17;7.80;;;3.85;;
53903;SDS011;39812;52.430;16.936;2022-09-17T08:21:43;5.95;;;3.65;;
53903;SDS011;39812;52.430;16.936;2022-09-17T08:24:08;7.85;;;3.80;;
53903;SDS011;39812;52.430;16.936;2022-09-17T08:26:34;8.70;;;3.58;;
53903;SDS011;39812;52.430;16.936;2022-09-17T08:29:00;8.18;;;3.55;;
53903;SDS011;39812;52.430;16.936;2022-09-17T08:31:26;8.75;;;3.67;;
53903;SDS011;39812;52.430;16.936;2022-09-17T08:33:53;4.75;;;2.90;;
53903;SDS011;39812;52.430;16.936;2022-09-17T08:36:19;6.18;;;3.88;;
53903;SDS011;39812;52.430;16.936;2022-09-17T08:38:46;5.57;;;3.00;;
53903;SDS011;39812;52.430;16.936;2022-09-17T08:43:50;10.63;;;3.90;;
53903;SDS011;39812;52.430;16.936;2022-09-17T08:54:58;5.47;;;2.60;;
53903;SDS011;39812;52.430;16.936;2022-09-17T09:00:17;4.43;;;2.10;;
53903;SDS011;39812;52.430;16.936;2022-09-17T09:02:52;4.82;;;2.35;;
53903;SDS011;39812;52.430;16.936;2022-09-17T09:05:43;3.45;;;2.30;;
53903;SDS011;39812;52.430;16.936;2022-09-17T09:10:56;3.35;;;2.42;;
53903;SDS011;39812;52.430;16.936;2022-09-17T09:13:26;4.22;;;2.03;;
53903;SDS011;39812;52.430;16.936;2022-09-17T09:15:58;3.15;;;1.80;;
53903;SDS011;39812;52.430;16.936;2022-09-17T09:18:32;3.05;;;1.90;;
53903;SDS011;39812;52.430;16.936;2022-09-17T09:26:23;4.70;;;1.88;;
53903;SDS011;39812;52.430;16.936;2022-09-17T09:29:18;3.78;;;1.52;;
53903;SDS011;39812;52.430;16.936;2022-09-17T09:34:44;1.60;;;1.13;;
53903;SDS011;39812;52.430;16.936;2022-09-17T09:37:22;4.82;;;1.67;;
53903;SDS011;39812;52.430;16.936;2022-09-17T09:39:52;2.22;;;1.25;;
53903;SDS011;39812;52.430;16.936;2022-09-17T09:42:25;2.92;;;1.42;;
53903;SDS011;39812;52.430;16.936;2022-09-17T09:44:57;6.05;;;1.70;;
53903;SDS011;39812;52.430;16.936;2022-09-17T09:50:14;2.17;;;1.67;;
53903;SDS011;39812;52.430;16.936;2022-09-17T09:52:58;2.13;;;1.30;;
53903;SDS011;39812;52.430;16.936;2022-09-17T09:58:23;5.15;;;2.03;;
53903;SDS011;39812;52.430;16.936;2022-09-17T10:00:57;1.58;;;1.20;;
53903;SDS011;39812;52.430;16.936;2022-09-17T10:03:25;3.28;;;1.50;;
53903;SDS011;39812;52.430;16.936;2022-09-17T10:05:56;3.28;;;1.30;;
53903;SDS011;39812;52.430;16.936;2022-09-17T10:08:28;3.00;;;1.10;;
53903;SDS011;39812;52.430;16.936;2022-09-17T10:11:00;2.55;;;1.10;;
53903;SDS011;39812;52.430;16.936;2022-09-17T10:13:29;4.78;;;1.23;;
53903;SDS011;39812;52.430;16.936;2022-09-17T10:15:56;3.17;;;1.70;;
53903;SDS011;39812;52.430;16.936;2022-09-17T10:18:31;1.80;;;1.50;;
53903;SDS011;39812;52.430;16.936;2022-09-17T10:20:57;2.28;;;1.50;;
53903;SDS011;39812;52.430;16.936;2022-09-17T10:23:25;2.63;;;1.50;;
53903;SDS011;39812;52.430;16.936;2022-09-17T10:25:53;1.92;;;1.38;;
53903;SDS011;39812;52.430;16.936;2022-09-17T10:31:13;2.13;;;1.05;;
53903;SDS011;39812;52.430;16.936;2022-09-17T10:34:00;2.20;;;1.20;;
53903;SDS011;39812;52.430;16.936;2022-09-17T10:36:41;3.15;;;1.30;;
53903;SDS011;39812;52.430;16.936;2022-09-17T10:39:29;2.08;;;1.20;;
53903;SDS011;39812;52.430;16.936;2022-09-17T10:42:12;2.88;;;1.20;;
53903;SDS011;39812;52.430;16.936;2022-09-17T10:44:38;1.98;;;1.17;;
53903;SDS011;39812;52.430;16.936;2022-09-17T10:47:21;2.58;;;1.27;;
53903;SDS011;39812;52.430;16.936;2022-09-17T10:49:52;2.88;;;1.23;;
53903;SDS011;39812;52.430;16.936;2022-09-17T10:52:37;2.25;;;1.17;;
53903;SDS011;39812;52.430;16.936;2022-09-17T11:03:52;1.15;;;0.60;;
53903;SDS011;39812;52.430;16.936;2022-09-17T11:11:17;1.70;;;0.57;;
53903;SDS011;39812;52.430;16.936;2022-09-17T11:14:03;2.92;;;0.60;;
53903;SDS011;39812;52.430;16.936;2022-09-17T11:21:55;3.00;;;0.70;;
53903;SDS011;39812;52.430;16.936;2022-09-17T11:30:26;2.70;;;0.87;;
53903;SDS011;39812;52.430;16.936;2022-09-17T11:35:45;1.85;;;1.02;;
53903;SDS011;39812;52.430;16.936;2022-09-17T11:38:21;3.13;;;1.30;;
53903;SDS011;39812;52.430;16.936;2022-09-17T11:41:03;1.58;;;0.93;;
53903;SDS011;39812;52.430;16.936;2022-09-17T11:43:35;4.90;;;0.57;;
53903;SDS011;39812;52.430;16.936;2022-09-17T11:46:06;0.88;;;0.40;;
53903;SDS011;39812;52.430;16.936;2022-09-17T11:48:34;1.40;;;0.57;;
53903;SDS011;39812;52.430;16.936;2022-09-17T11:51:27;1.17;;;0.55;;
53903;SDS011;39812;52.430;16.936;2022-09-17T11:54:01;1.50;;;0.95;;
53903;SDS011;39812;52.430;16.936;2022-09-17T12:01:53;2.88;;;1.10;;
53903;SDS011;39812;52.430;16.936;2022-09-17T12:04:28;2.05;;;1.15;;
53903;SDS011;39812;52.430;16.936;2022-09-17T12:07:14;2.53;;;1.20;;
53903;SDS011;39812;52.430;16.936;2022-09-17T12:13:06;3.28;;;1.38;;
53903;SDS011;39812;52.430;16.936;2022-09-17T12:15:42;2.30;;;1.35;;
53903;SDS011;39812;52.430;16.936;2022-09-17T12:21:05;2.35;;;1.23;;
53903;SDS011;39812;52.430;16.936;2022-09-17T12:26:06;0.70;;;0.60;;
53903;SDS011;39812;52.430;16.936;2022-09-17T12:31:31;2.75;;;0.85;;
53903;SDS011;39812;52.430;16.936;2022-09-17T12:34:12;1.48;;;0.90;;
53903;SDS011;39812;52.430;16.936;2022-09-17T12:37:07;3.10;;;0.73;;
53903;SDS011;39812;52.430;16.936;2022-09-17T12:40:14;3.60;;;0.65;;
53903;SDS011;39812;52.430;16.936;2022-09-17T12:43:44;1.85;;;0.63;;
53903;SDS011;39812;52.430;16.936;2022-09-17T12:45:59;2.95;;;0.80;;
53903;SDS011;39812;52.430;16.936;2022-09-17T12:57:24;3.38;;;1.00;;
53903;SDS011;39812;52.430;16.936;2022-09-17T13:00:11;2.55;;;0.95;;
53903;SDS011;39812;52.430;16.936;2022-09-17T13:02:44;1.33;;;0.70;;
53903;SDS011;39812;52.430;16.936;2022-09-17T13:05:30;2.55;;;1.17;;
53903;SDS011;39812;52.430;16.936;2022-09-17T13:11:26;2.60;;;0.70;;
53903;SDS011;39812;52.430;16.936;2022-09-17T13:17:03;2.72;;;1.00;;
53903;SDS011;39812;52.430;16.936;2022-09-17T13:22:42;1.30;;;0.65;;
53903;SDS011;39812;52.430;16.936;2022-09-17T13:25:14;1.88;;;0.57;;
53903;SDS011;39812;52.430;16.936;2022-09-17T13:27:42;0.93;;;0.50;;
53903;SDS011;39812;52.430;16.936;2022-09-17T13:30:12;2.88;;;0.63;;
53903;SDS011;39812;52.430;16.936;2022-09-17T13:37:34;3.45;;;1.10;;
53903;SDS011;39812;52.430;16.936;2022-09-17T13:40:01;3.70;;;1.08;;
53903;SDS011;39812;52.430;16.936;2022-09-17T13:42:29;4.28;;;0.77;;
53903;SDS011;39812;52.430;16.936;2022-09-17T13:45:07;2.33;;;0.50;;
53903;SDS011;39812;52.430;16.936;2022-09-17T13:47:57;3.13;;;0.65;;
53903;SDS011;39812;52.430;16.936;2022-09-17T13:50:30;2.55;;;0.80;;
53903;SDS011;39812;52.430;16.936;2022-09-17T13:55:51;4.45;;;0.90;;
53903;SDS011;39812;52.430;16.936;2022-09-17T13:58:29;2.40;;;1.00;;
53903;SDS011;39812;52.430;16.936;2022-09-17T14:13:52;2.50;;;0.95;;
53903;SDS011;39812;52.430;16.936;2022-09-17T14:18:56;3.92;;;0.90;;
53903;SDS011;39812;52.430;16.936;2022-09-17T14:21:43;5.85;;;1.38;;
53903;SDS011;39812;52.430;16.936;2022-09-17T14:27:10;4.03;;;0.90;;
53903;SDS011;39812;52.430;16.936;2022-09-17T14:32:45;10.23;;;1.67;;
53903;SDS011;39812;52.430;16.936;2022-09-17T14:38:14;4.35;;;1.00;;
53903;SDS011;39812;52.430;16.936;2022-09-17T14:40:58;6.00;;;1.20;;
53903;SDS011;39812;52.430;16.936;2022-09-17T14:43:34;3.72;;;0.98;;
53903;SDS011;39812;52.430;16.936;2022-09-17T14:46:18;3.50;;;1.00;;
53903;SDS011;39812;52.430;16.936;2022-09-17T14:51:45;1.63;;;0.60;;
53903;SDS011;39812;52.430;16.936;2022-09-17T14:54:18;2.22;;;0.77;;
53903;SDS011;39812;52.430;16.936;2022-09-17T14:56:47;1.95;;;0.65;;
53903;SDS011;39812;52.430;16.936;2022-09-17T14:59:20;4.38;;;0.75;;
53903;SDS011;39812;52.430;16.936;2022-09-17T15:01:55;3.85;;;1.10;;
53903;SDS011;39812;52.430;16.936;2022-09-17T15:04:22;3.58;;;0.95;;
53903;SDS011;39812;52.430;16.936;2022-09-17T15:06:49;3.25;;;1.05;;
53903;SDS011;39812;52.430;16.936;2022-09-17T15:09:21;6.65;;;1.20;;
53903;SDS011;39812;52.430;16.936;2022-09-17T15:11:49;4.82;;;1.20;;
53903;SDS011;39812;52.430;16.936;2022-09-17T15:14:19;5.22;;;0.93;;
53903;SDS011;39812;52.430;16.936;2022-09-17T15:16:47;5.03;;;1.08;;
53903;SDS011;39812;52.430;16.936;2022-09-17T15:19:18;6.43;;;1.27;;
53903;SDS011;39812;52.430;16.936;2022-09-17T15:21:50;5.78;;;1.33;;
53903;SDS011;39812;52.430;16.936;2022-09-17T15:27:12;5.40;;;0.90;;
53903;SDS011;39812;52.430;16.936;2022-09-17T15:29:46;5.10;;;1.48;;
53903;SDS011;39812;52.430;16.936;2022-09-17T15:32:16;3.70;;;0.85;;
53903;SDS011;39812;52.430;16.936;2022-09-17T15:34:41;4.80;;;1.17;;
53903;SDS011;39812;52.430;16.936;2022-09-17T15:37:17;6.20;;;1.35;;
53903;SDS011;39812;52.430;16.936;2022-09-17T15:39:48;7.93;;;1.10;;
53903;SDS011;39812;52.430;16.936;2022-09-17T15:42:22;5.10;;;1.38;;
53903;SDS011;39812;52.430;16.936;2022-09-17T15:44:51;4.78;;;1.60;;
53903;SDS011;39812;52.430;16.936;2022-09-17T15:47:32;3.20;;;0.90;;
53903;SDS011;39812;52.430;16.936;2022-09-17T15:51:02;2.70;;;0.80;;
53903;SDS011;39812;52.430;16.936;2022-09-17T15:52:57;8.25;;;1.52;;
53903;SDS011;39812;52.430;16.936;2022-09-17T15:55:37;4.68;;;1.33;;
53903;SDS011;39812;52.430;16.936;2022-09-17T15:58:19;5.05;;;1.50;;
53903;SDS011;39812;52.430;16.936;2022-09-17T16:00:50;7.40;;;1.30;;
53903;SDS011;39812;52.430;16.936;2022-09-17T16:08:42;5.95;;;1.33;;
53903;SDS011;39812;52.430;16.936;2022-09-17T16:11:19;3.75;;;1.20;;
53903;SDS011;39812;52.430;16.936;2022-09-17T16:13:50;6.20;;;1.10;;
53903;SDS011;39812;52.430;16.936;2022-09-17T16:16:21;3.33;;;1.15;;
53903;SDS011;39812;52.430;16.936;2022-09-17T16:18:48;4.65;;;1.38;;
53903;SDS011;39812;52.430;16.936;2022-09-17T16:21:15;4.05;;;1.10;;
53903;SDS011;39812;52.430;16.936;2022-09-17T16:23:42;6.13;;;1.60;;
53903;SDS011;39812;52.430;16.936;2022-09-17T16:26:13;5.22;;;1.80;;
53903;SDS011;39812;52.430;16.936;2022-09-17T16:28:42;4.38;;;1.40;;
53903;SDS011;39812;52.430;16.936;2022-09-17T16:31:11;9.55;;;1.42;;
53903;SDS011;39812;52.430;16.936;2022-09-17T16:33:37;5.45;;;1.45;;
53903;SDS011;39812;52.430;16.936;2022-09-17T16:36:03;6.25;;;1.60;;
53903;SDS011;39812;52.430;16.936;2022-09-17T16:38:28;6.65;;;1.38;;
53903;SDS011;39812;52.430;16.936;2022-09-17T16:40:54;7.78;;;2.20;;
53903;SDS011;39812;52.430;16.936;2022-09-17T16:43:20;6.80;;;1.25;;
53903;SDS011;39812;52.430;16.936;2022-09-17T16:45:58;3.88;;;1.10;;
53903;SDS011;39812;52.430;16.936;2022-09-17T16:48:24;6.13;;;1.85;;
53903;SDS011;39812;52.430;16.936;2022-09-17T16:50:50;6.32;;;1.23;;
53903;SDS011;39812;52.430;16.936;2022-09-17T16:53:15;9.73;;;1.40;;
53903;SDS011;39812;52.430;16.936;2022-09-17T16:55:40;4.43;;;1.20;;
53903;SDS011;39812;52.430;16.936;2022-09-17T16:58:06;5.80;;;1.42;;
53903;SDS011;39812;52.430;16.936;2022-09-17T17:00:31;5.43;;;1.58;;
53903;SDS011;39812;52.430;16.936;2022-09-17T17:02:57;3.95;;;1.45;;
53903;SDS011;39812;52.430;16.936;2022-09-17T17:05:23;4.47;;;1.20;;
53903;SDS011;39812;52.430;16.936;2022-09-17T17:07:50;6.07;;;1.40;;
53903;SDS011;39812;52.430;16.936;2022-09-17T17:10:16;5.25;;;1.40;;
53903;SDS011;39812;52.430;16.936;2022-09-17T17:12:41;8.82;;;1.88;;
53903;SDS011;39812;52.430;16.936;2022-09-17T17:15:07;7.88;;;1.52;;
53903;SDS011;39812;52.430;16.936;2022-09-17T17:17:34;7.35;;;1.48;;
53903;SDS011;39812;52.430;16.936;2022-09-17T17:20:00;6.53;;;1.77;;
53903;SDS011;39812;52.430;16.936;2022-09-17T17:22:34;4.18;;;1.60;;
53903;SDS011;39812;52.430;16.936;2022-09-17T17:25:01;10.10;;;1.45;;
53903;SDS011;39812;52.430;16.936;2022-09-17T17:27:27;6.45;;;2.60;;
53903;SDS011;39812;52.430;16.936;2022-09-17T17:29:53;6.90;;;1.75;;
53903;SDS011;39812;52.430;16.936;2022-09-17T17:32:18;4.50;;;1.00;;
53903;SDS011;39812;52.430;16.936;2022-09-17T17:34:44;8.57;;;2.17;;
53903;SDS011;39812;52.430;16.936;2022-09-17T17:37:09;4.53;;;1.08;;
53903;SDS011;39812;52.430;16.936;2022-09-17T17:39:35;5.63;;;1.15;;
53903;SDS011;39812;52.430;16.936;2022-09-17T17:42:01;4.53;;;1.35;;
53903;SDS011;39812;52.430;16.936;2022-09-17T17:44:26;8.40;;;1.63;;